createdAt,value
2018-11-11T00:02:08.083Z,15.57
2018-11-11T00:04:37.644Z,15.58
2018-11-11T00:07:06.453Z,15.61
2018-11-11T00:09:55.358Z,15.59
2018-11-11T00:12:23.930Z,15.56
2018-11-11T00:14:52.461Z,15.61
2018-11-11T00:17:21.860Z,15.55
2018-11-11T00:19:50.273Z,15.54
2018-11-11T00:22:19.179Z,15.50
2018-11-11T00:24:47.606Z,15.49
2018-11-11T00:27:15.992Z,15.48
2018-11-11T00:29:44.374Z,15.42
2018-11-11T00:32:12.785Z,15.43
2018-11-11T00:34:41.248Z,15.36
2018-11-11T00:37:11.443Z,15.35
2018-11-11T00:39:41.230Z,15.34
2018-11-11T00:42:10.541Z,15.41
2018-11-11T00:44:38.849Z,15.45
2018-11-11T00:47:08.179Z,15.50
2018-11-11T00:49:36.482Z,15.49
2018-11-11T00:52:11.011Z,15.53
2018-11-11T00:54:40.012Z,15.61
2018-11-11T00:57:09.227Z,15.57
2018-11-11T00:59:37.792Z,15.63
2018-11-11T01:02:09.161Z,15.60
2018-11-11T01:04:37.466Z,15.61
2018-11-11T01:07:08.411Z,15.62
2018-11-11T01:09:37.481Z,15.61
2018-11-11T01:12:06.267Z,15.62
2018-11-11T01:14:34.560Z,15.62
2018-11-11T01:17:04.792Z,15.59
2018-11-11T01:19:33.181Z,15.58
2018-11-11T01:22:07.200Z,15.60
2018-11-11T01:24:35.876Z,15.56
2018-11-11T01:27:08.155Z,15.53
2018-11-11T01:29:36.534Z,15.57
2018-11-11T01:32:05.093Z,15.56
2018-11-11T01:34:34.195Z,15.62
2018-11-11T01:37:05.505Z,15.60
2018-11-11T01:39:34.173Z,15.62
2018-11-11T01:42:07.537Z,15.66
2018-11-11T01:44:35.894Z,15.66
2018-11-11T01:47:07.110Z,15.65
2018-11-11T01:49:35.474Z,15.68
2018-11-11T01:52:07.193Z,15.71
2018-11-11T01:54:35.697Z,15.67
2018-11-11T01:57:07.893Z,15.72
2018-11-11T01:59:36.207Z,15.65
2018-11-11T02:02:08.968Z,15.73
2018-11-11T02:04:37.304Z,15.68
2018-11-11T02:07:08.158Z,15.68
2018-11-11T02:09:36.647Z,15.71
2018-11-11T02:12:08.959Z,15.74
2018-11-11T02:14:37.310Z,15.77
2018-11-11T02:17:05.677Z,15.77
2018-11-11T02:19:34.016Z,15.76
2018-11-11T02:22:07.201Z,15.80
2018-11-11T02:24:35.543Z,15.77
2018-11-11T02:27:07.346Z,15.84
2018-11-11T02:29:35.609Z,15.81
2018-11-11T02:32:06.514Z,15.82
2018-11-11T02:34:34.861Z,15.78
2018-11-11T02:37:04.438Z,15.74
2018-11-11T02:39:32.747Z,15.70
2018-11-11T02:42:03.023Z,15.59
2018-11-11T02:44:32.744Z,15.49
2018-11-11T02:47:03.008Z,15.49
2018-11-11T02:49:31.458Z,15.40
2018-11-11T02:51:59.862Z,15.33
2018-11-11T02:54:28.318Z,15.36
2018-11-11T02:56:56.625Z,15.30
2018-11-11T02:59:25.419Z,15.33
2018-11-11T03:01:53.785Z,15.35
2018-11-11T03:04:22.425Z,15.35
2018-11-11T03:06:50.753Z,15.28
2018-11-11T03:09:20.251Z,15.28
2018-11-11T03:11:48.634Z,15.28
2018-11-11T03:14:16.936Z,15.23
2018-11-11T03:16:45.238Z,15.23
2018-11-11T03:19:13.654Z,15.21
2018-11-11T03:21:42.022Z,15.22
2018-11-11T03:24:10.321Z,15.21
2018-11-11T03:26:38.677Z,15.19
2018-11-11T03:29:08.871Z,15.14
2018-11-11T03:31:37.194Z,14.99
2018-11-11T03:34:11.204Z,14.94
2018-11-11T03:36:39.905Z,14.80
2018-11-11T03:39:12.830Z,14.77
2018-11-11T03:41:41.230Z,14.74
2018-11-11T03:44:09.601Z,14.68
2018-11-11T03:46:37.897Z,14.71
2018-11-11T03:49:06.244Z,14.67
2018-11-11T03:51:35.367Z,14.68
2018-11-11T03:54:09.522Z,14.76
2018-11-11T03:56:38.157Z,14.81
2018-11-11T03:59:09.117Z,14.77
2018-11-11T04:01:37.409Z,14.69
2018-11-11T04:04:08.356Z,14.66
2018-11-11T04:06:36.646Z,14.68
2018-11-11T04:09:10.402Z,14.68
2018-11-11T04:11:39.490Z,14.60
2018-11-11T04:14:08.298Z,14.62
2018-11-11T04:16:36.766Z,14.61
2018-11-11T04:19:05.906Z,14.60
2018-11-11T04:21:34.226Z,14.65
2018-11-11T04:24:07.010Z,14.67
2018-11-11T04:26:36.434Z,14.73
2018-11-11T04:29:13.909Z,14.74
2018-11-11T04:31:42.293Z,14.71
2018-11-11T04:34:10.543Z,14.80
2018-11-11T04:36:39.454Z,14.81
2018-11-11T04:39:09.671Z,14.82
2018-11-11T04:41:38.265Z,14.80
2018-11-11T04:44:10.466Z,14.82
2018-11-11T04:46:38.858Z,14.78
2018-11-11T04:49:07.217Z,14.77
2018-11-11T04:51:35.487Z,14.75
2018-11-11T04:54:06.696Z,14.74
2018-11-11T04:56:35.019Z,14.65
2018-11-11T04:59:10.589Z,14.67
2018-11-11T05:01:41.064Z,14.69
2018-11-11T05:04:09.243Z,14.70
2018-11-11T05:06:37.549Z,14.67
2018-11-11T05:09:11.300Z,14.68
2018-11-11T05:11:39.958Z,14.70
2018-11-11T05:14:10.185Z,14.74
2018-11-11T05:16:38.716Z,14.71
2018-11-11T05:19:09.592Z,14.68
2018-11-11T05:21:37.917Z,14.70
2018-11-11T05:24:08.037Z,14.70
2018-11-11T05:26:37.426Z,14.70
2018-11-11T05:29:08.777Z,14.72
2018-11-11T05:31:37.091Z,14.72
2018-11-11T05:34:07.167Z,14.82
2018-11-11T05:36:35.398Z,14.79
2018-11-11T05:39:08.545Z,14.82
2018-11-11T05:41:36.806Z,14.89
2018-11-11T05:44:05.354Z,14.93
2018-11-11T05:46:33.665Z,14.95
2018-11-11T05:49:03.395Z,15.10
2018-11-11T05:51:31.706Z,15.05
2018-11-11T05:54:00.036Z,15.00
2018-11-11T05:56:30.915Z,15.05
2018-11-11T05:58:59.193Z,15.10
2018-11-11T06:01:27.532Z,15.10
2018-11-11T06:03:55.913Z,15.08
2018-11-11T06:06:24.735Z,15.14
2018-11-11T06:08:53.119Z,15.13
2018-11-11T06:11:21.549Z,15.13
2018-11-11T06:13:49.831Z,15.08
2018-11-11T06:16:18.264Z,15.03
2018-11-11T06:18:53.227Z,15.09
2018-11-11T06:21:21.504Z,15.11
2018-11-11T06:23:49.804Z,15.08
2018-11-11T06:26:18.126Z,15.04
2018-11-11T06:28:46.493Z,15.00
2018-11-11T06:31:14.818Z,15.03
2018-11-11T06:33:43.194Z,15.09
2018-11-11T06:36:12.098Z,15.08
2018-11-11T06:38:40.370Z,15.10
2018-11-11T06:41:08.634Z,15.02
2018-11-11T06:43:37.159Z,15.00
2018-11-11T06:46:07.034Z,15.06
2018-11-11T06:48:36.281Z,15.12
2018-11-11T06:51:07.174Z,15.15
2018-11-11T06:53:36.839Z,15.08
2018-11-11T06:56:06.498Z,15.04
2018-11-11T06:58:34.806Z,15.05
2018-11-11T07:01:08.012Z,14.97
2018-11-11T07:03:46.191Z,14.94
2018-11-11T07:06:14.520Z,14.90
2018-11-11T07:08:42.874Z,14.87
2018-11-11T07:11:11.218Z,14.88
2018-11-11T07:13:39.567Z,14.88
2018-11-11T07:16:07.842Z,14.83
2018-11-11T07:18:36.226Z,14.81
2018-11-11T07:21:05.542Z,14.84
2018-11-11T07:23:35.219Z,14.84
2018-11-11T07:26:05.799Z,14.87
2018-11-11T07:28:34.210Z,14.85
2018-11-11T07:31:09.286Z,14.78
2018-11-11T07:33:38.294Z,14.75
2018-11-11T07:36:08.275Z,14.73
2018-11-11T07:38:36.746Z,14.76
2018-11-11T07:41:08.279Z,14.73
2018-11-11T07:43:36.953Z,14.78
2018-11-11T07:46:07.342Z,14.77
2018-11-11T07:48:35.622Z,14.72
2018-11-11T07:51:04.229Z,14.79
2018-11-11T07:53:32.588Z,14.77
2018-11-11T07:56:02.007Z,14.78
2018-11-11T07:58:30.517Z,14.78
2018-11-11T08:01:05.582Z,14.81
2018-11-11T08:03:33.829Z,14.80
2018-11-11T08:06:03.715Z,14.80
2018-11-11T08:08:32.938Z,14.77
2018-11-11T08:11:12.473Z,14.81
2018-11-11T08:13:40.835Z,14.87
2018-11-11T08:16:09.129Z,14.98
2018-11-11T08:18:37.462Z,14.98
2018-11-11T08:21:06.895Z,14.99
2018-11-11T08:23:35.218Z,14.97
2018-11-11T08:26:08.206Z,14.97
2018-11-11T08:28:36.537Z,14.97
2018-11-11T08:31:07.187Z,14.98
2018-11-11T08:33:35.490Z,15.06
2018-11-11T08:36:05.121Z,15.04
2018-11-11T08:38:33.407Z,15.08
2018-11-11T08:41:03.659Z,15.04
2018-11-11T08:43:32.150Z,15.10
2018-11-11T08:46:02.093Z,15.02
2018-11-11T08:48:30.339Z,15.04
2018-11-11T08:50:58.623Z,15.05
2018-11-11T08:53:27.066Z,15.09
2018-11-11T08:55:55.352Z,15.11
2018-11-11T08:58:23.655Z,15.02
2018-11-11T09:00:51.908Z,15.05
2018-11-11T09:03:20.228Z,15.02
2018-11-11T09:05:48.571Z,15.05
2018-11-11T09:08:16.851Z,14.99
2018-11-11T09:10:45.161Z,14.98
2018-11-11T09:13:13.543Z,15.03
2018-11-11T09:15:41.811Z,15.01
2018-11-11T09:18:10.113Z,15.04
2018-11-11T09:20:38.370Z,15.09
2018-11-11T09:23:06.718Z,15.02
2018-11-11T09:25:35.451Z,15.01
2018-11-11T09:28:06.820Z,15.02
2018-11-11T09:30:35.382Z,14.96
2018-11-11T09:33:06.256Z,14.85
2018-11-11T09:35:36.694Z,14.86
2018-11-11T09:38:11.598Z,14.89
2018-11-11T09:40:42.376Z,14.80
2018-11-11T09:43:10.853Z,14.84
2018-11-11T09:45:39.266Z,14.78
2018-11-11T09:48:07.549Z,14.71
2018-11-11T09:50:36.031Z,14.75
2018-11-11T09:53:05.158Z,14.71
2018-11-11T09:55:33.464Z,14.73
2018-11-11T09:58:06.263Z,14.71
2018-11-11T10:00:34.618Z,14.75
2018-11-11T10:03:43.575Z,14.76
2018-11-11T10:06:47.224Z,14.75
2018-11-11T10:09:32.037Z,14.70
2018-11-11T10:12:05.664Z,14.69
2018-11-11T10:14:42.668Z,14.65
2018-11-11T10:19:24.010Z,14.55
2018-11-11T10:22:26.839Z,14.55
2018-11-11T10:26:08.610Z,14.57
2018-11-11T10:29:00.266Z,14.51
2018-11-11T10:32:09.149Z,14.51
2018-11-11T10:34:46.047Z,14.56
2018-11-11T10:37:20.517Z,14.60
2018-11-11T10:41:58.886Z,14.63
2018-11-11T10:44:36.100Z,14.63
2018-11-11T10:47:13.714Z,14.68
2018-11-11T10:49:49.540Z,14.87
2018-11-11T10:52:18.775Z,14.86
2018-11-11T10:54:47.028Z,14.85
2018-11-11T10:57:15.437Z,14.78
2018-11-11T10:59:43.672Z,14.83
2018-11-11T11:02:18.934Z,14.79
2018-11-11T11:04:52.841Z,15.00
2018-11-11T11:07:22.174Z,14.94
2018-11-11T11:09:50.486Z,14.88
2018-11-11T11:12:18.943Z,14.92
2018-11-11T11:14:47.256Z,15.01
2018-11-11T11:17:15.502Z,15.02
2018-11-11T11:19:43.813Z,15.14
2018-11-11T11:22:12.119Z,15.08
2018-11-11T11:24:41.138Z,15.01
2018-11-11T11:27:09.477Z,14.94
2018-11-11T11:29:37.737Z,15.04
2018-11-11T11:32:08.494Z,14.99
2018-11-11T11:34:36.861Z,14.92
2018-11-11T11:37:07.753Z,14.90
2018-11-11T11:39:36.194Z,14.94
2018-11-11T11:42:11.177Z,14.84
2018-11-11T11:44:41.115Z,14.76
2018-11-11T11:47:09.463Z,14.76
2018-11-11T11:49:40.838Z,14.79
2018-11-11T11:52:10.881Z,14.90
2018-11-11T11:54:39.887Z,14.79
2018-11-11T11:57:09.532Z,14.83
2018-11-11T11:59:38.393Z,14.81
2018-11-11T12:02:07.611Z,14.90
2018-11-11T12:04:35.918Z,14.99
2018-11-11T12:07:07.086Z,15.15
2018-11-11T12:09:35.417Z,15.21
2018-11-11T12:12:06.291Z,15.03
2018-11-11T12:14:34.675Z,15.02
2018-11-11T12:17:07.246Z,14.87
2018-11-11T12:19:35.577Z,14.63
2018-11-11T12:22:07.338Z,14.51
2018-11-11T12:24:35.825Z,14.62
2018-11-11T12:27:05.816Z,14.56
2018-11-11T12:29:34.194Z,14.47
2018-11-11T12:32:04.245Z,14.54
2018-11-11T12:34:32.616Z,14.43
2018-11-11T12:37:05.594Z,14.39
2018-11-11T12:39:34.123Z,14.42
2018-11-11T12:42:06.389Z,14.37
2018-11-11T12:44:34.725Z,14.49
2018-11-11T12:47:07.834Z,14.53
2018-11-11T12:49:36.166Z,14.62
2018-11-11T12:52:06.219Z,14.53
2018-11-11T12:54:34.480Z,14.38
2018-11-11T12:57:06.220Z,14.37
2018-11-11T12:59:34.570Z,14.30
2018-11-11T13:02:09.229Z,14.34
2018-11-11T13:04:37.780Z,14.50
2018-11-11T13:07:06.174Z,14.51
2018-11-11T13:09:34.562Z,14.49
2018-11-11T13:12:04.676Z,14.39
2018-11-11T13:14:33.711Z,14.45
2018-11-11T13:17:03.727Z,14.44
2018-11-11T13:19:32.161Z,14.37
2018-11-11T13:22:00.594Z,14.38
2018-11-11T13:24:30.325Z,14.44
2018-11-11T13:26:59.656Z,14.33
2018-11-11T13:29:28.059Z,14.34
2018-11-11T13:31:56.497Z,14.30
2018-11-11T13:34:25.037Z,14.14
2018-11-11T13:36:53.447Z,14.07
2018-11-11T13:39:22.023Z,14.03
2018-11-11T13:41:51.368Z,14.01
2018-11-11T13:44:19.713Z,13.88
2018-11-11T13:46:48.069Z,13.72
2018-11-11T13:49:16.650Z,13.63
2018-11-11T13:51:45.051Z,13.56
2018-11-11T13:54:13.398Z,13.51
2018-11-11T13:56:41.743Z,13.41
2018-11-11T13:59:10.092Z,13.33
2018-11-11T14:01:38.529Z,13.27
2018-11-11T14:04:06.954Z,13.31
2018-11-11T14:06:35.425Z,13.21
2018-11-11T14:09:11.590Z,13.09
2018-11-11T14:11:39.968Z,13.00
2018-11-11T14:14:10.196Z,12.99
2018-11-11T14:16:38.930Z,13.04
2018-11-11T14:19:07.990Z,13.10
2018-11-11T14:21:36.090Z,13.06
2018-11-11T14:24:05.937Z,13.07
2018-11-11T14:26:34.272Z,13.03
2018-11-11T14:29:04.562Z,13.00
2018-11-11T14:31:33.072Z,13.04
2018-11-11T14:34:06.759Z,13.12
2018-11-11T14:36:35.239Z,13.06
2018-11-11T14:39:11.596Z,13.03
2018-11-11T14:41:40.623Z,12.88
2018-11-11T14:44:09.180Z,12.91
2018-11-11T14:46:38.513Z,12.98
2018-11-11T14:49:07.449Z,12.99
2018-11-11T14:51:35.947Z,12.92
2018-11-11T14:54:09.077Z,12.55
2018-11-11T14:56:37.536Z,12.71
2018-11-11T14:59:08.264Z,12.52
2018-11-11T15:01:37.032Z,12.48
2018-11-11T15:04:07.090Z,12.47
2018-11-11T15:06:35.603Z,12.38
2018-11-11T15:09:08.824Z,12.31
2018-11-11T15:11:37.652Z,12.33
2018-11-11T15:14:06.782Z,12.32
2018-11-11T15:16:35.848Z,12.33
2018-11-11T15:19:07.119Z,12.36
2018-11-11T15:21:36.799Z,12.39
2018-11-11T15:24:06.241Z,12.38
2018-11-11T15:26:35.103Z,12.51
2018-11-11T15:29:09.246Z,12.40
2018-11-11T15:31:38.130Z,12.43
2018-11-11T15:34:07.175Z,12.40
2018-11-11T15:36:35.545Z,12.53
2018-11-11T15:39:10.923Z,12.47
2018-11-11T15:41:39.921Z,12.45
2018-11-11T15:44:08.562Z,12.37
2018-11-11T15:46:37.826Z,12.33
2018-11-11T15:49:11.021Z,12.26
2018-11-11T15:51:47.148Z,12.25
2018-11-11T15:54:17.128Z,12.33
2018-11-11T15:56:45.776Z,12.30
2018-11-11T15:59:14.580Z,12.43
2018-11-11T16:01:43.087Z,12.42
2018-11-11T16:04:11.971Z,12.30
2018-11-11T16:06:40.373Z,12.31
2018-11-11T16:09:09.596Z,12.21
2018-11-11T16:11:38.028Z,12.19
2018-11-11T16:14:08.546Z,12.18
2018-11-11T16:16:37.027Z,12.16
2018-11-11T16:19:05.543Z,12.10
2018-11-11T16:21:33.955Z,12.09
2018-11-11T16:24:07.716Z,12.07
2018-11-11T16:26:36.180Z,12.04
2018-11-11T16:29:06.512Z,12.05
2018-11-11T16:31:35.020Z,11.93
2018-11-11T16:34:08.026Z,11.93
2018-11-11T16:36:36.584Z,11.96
2018-11-11T16:39:11.752Z,11.85
2018-11-11T16:52:39.830Z,11.66
2018-11-11T16:55:12.742Z,11.64
2018-11-11T16:57:43.826Z,11.76
2018-11-11T17:00:24.485Z,11.69
2018-11-11T17:02:55.994Z,11.70
2018-11-11T17:05:29.003Z,11.64
2018-11-11T17:07:59.947Z,11.65
2018-11-11T17:10:35.122Z,11.60
2018-11-11T17:13:10.029Z,11.63
2018-11-11T17:15:40.891Z,11.65
2018-11-11T17:18:11.868Z,11.70
2018-11-11T17:20:42.788Z,11.74
2018-11-11T17:23:13.621Z,11.75
2018-11-11T17:25:44.885Z,11.72
2018-11-11T17:28:15.710Z,11.71
2018-11-11T17:30:47.622Z,11.69
2018-11-11T17:33:18.498Z,11.65
2018-11-11T17:35:49.491Z,11.68
2018-11-11T17:38:20.308Z,11.77
2018-11-11T17:40:51.215Z,11.62
2018-11-11T17:43:22.026Z,11.56
2018-11-11T17:45:52.830Z,11.56
2018-11-11T17:48:23.690Z,11.58
2018-11-11T17:50:54.504Z,11.64
2018-11-11T17:53:25.349Z,11.54
2018-11-11T17:55:56.401Z,11.46
2018-11-11T17:58:27.299Z,11.42
2018-11-11T18:00:58.254Z,11.47
2018-11-11T18:03:29.176Z,11.57
2018-11-11T18:06:00.123Z,11.52
2018-11-11T18:08:36.411Z,11.56
2018-11-11T18:11:08.951Z,11.54
2018-11-11T18:13:40.072Z,11.46
2018-11-11T18:16:11.018Z,11.50
2018-11-11T18:18:42.256Z,11.37
2018-11-11T18:21:13.373Z,11.41
2018-11-11T18:23:44.321Z,11.39
2018-11-11T18:26:16.518Z,11.35
2018-11-11T18:28:47.646Z,11.42
2018-11-11T18:31:18.980Z,11.33
2018-11-11T18:33:50.836Z,11.41
2018-11-11T18:36:22.162Z,11.40
2018-11-11T18:38:53.598Z,11.42
2018-11-11T18:41:24.476Z,11.37
2018-11-11T18:43:55.914Z,11.41
2018-11-11T18:46:27.628Z,11.33
2018-11-11T18:48:59.507Z,11.40
2018-11-11T18:51:30.683Z,11.37
2018-11-11T18:54:07.987Z,11.30
2018-11-11T18:56:38.960Z,11.32
2018-11-11T18:59:10.142Z,11.25
2018-11-11T19:01:41.054Z,11.26
2018-11-11T19:04:12.484Z,11.24
2018-11-11T19:06:43.704Z,11.26
2018-11-11T19:09:16.150Z,11.33
2018-11-11T19:11:47.580Z,11.29
2018-11-11T19:14:18.840Z,11.30
2018-11-11T19:16:49.678Z,11.32
2018-11-11T19:19:21.826Z,11.26
2018-11-11T19:21:53.279Z,11.21
2018-11-11T19:24:25.322Z,11.29
2018-11-11T19:26:57.075Z,11.31
2018-11-11T19:29:28.032Z,11.32
2018-11-11T19:32:00.198Z,11.36
2018-11-11T19:34:33.017Z,11.29
2018-11-11T19:37:07.854Z,11.35
2018-11-11T19:39:38.776Z,11.30
2018-11-11T19:42:09.971Z,11.25
2018-11-11T19:44:40.895Z,11.27
2018-11-11T19:47:11.691Z,11.32
2018-11-11T19:49:42.638Z,11.34
2018-11-11T19:52:13.710Z,11.37
2018-11-11T19:54:44.543Z,11.48
2018-11-11T19:57:16.275Z,11.51
2018-11-11T19:59:51.328Z,11.50
2018-11-11T20:02:27.646Z,11.53
2018-11-11T20:04:59.086Z,11.54
2018-11-11T20:07:29.962Z,11.45
2018-11-11T20:10:00.784Z,11.42
2018-11-11T20:12:36.087Z,11.40
2018-11-11T20:15:11.156Z,11.35
2018-11-11T20:17:42.619Z,11.36
2018-11-11T20:20:16.420Z,11.33
2018-11-11T20:22:47.297Z,11.36
2018-11-11T20:25:19.794Z,11.33
2018-11-11T20:27:51.737Z,11.37
2018-11-11T20:30:24.854Z,11.40
2018-11-11T20:32:56.009Z,11.42
2018-11-11T20:35:28.348Z,11.40
2018-11-11T20:37:59.249Z,11.42
2018-11-11T20:40:30.329Z,11.38
2018-11-11T20:43:06.214Z,11.43
2018-11-11T20:45:37.552Z,11.43
2018-11-11T20:48:09.143Z,11.46
2018-11-11T20:50:40.157Z,11.45
2018-11-11T20:53:10.998Z,11.45
2018-11-11T20:55:41.910Z,11.38
2018-11-11T20:58:12.907Z,11.31
2018-11-11T21:00:44.619Z,11.22
2018-11-11T21:03:15.524Z,11.13
2018-11-11T21:05:47.489Z,11.13
2018-11-11T21:08:18.347Z,11.09
2018-11-11T21:10:49.187Z,11.06
2018-11-11T21:13:20.885Z,10.93
2018-11-11T21:15:51.721Z,10.88
2018-11-11T21:18:22.845Z,10.81
2018-11-11T21:20:53.626Z,10.71
2018-11-11T21:23:25.312Z,10.74
2018-11-11T21:25:57.248Z,10.71
2018-11-11T21:28:28.085Z,10.71
2018-11-11T21:30:58.900Z,10.63
2018-11-11T21:33:29.757Z,10.53
2018-11-11T21:36:03.865Z,10.43
2018-11-11T21:38:35.217Z,10.39
2018-11-11T21:41:06.466Z,10.43
2018-11-11T21:43:37.335Z,10.30
2018-11-11T21:46:09.098Z,10.24
2018-11-11T21:48:39.980Z,10.14
2018-11-11T21:51:10.888Z,10.03
2018-11-11T21:53:42.405Z,9.91
2018-11-11T21:56:14.027Z,9.89
2018-11-11T21:58:44.934Z,9.84
2018-11-11T22:01:16.028Z,9.84
2018-11-11T22:03:47.817Z,9.88
2018-11-11T22:06:19.264Z,9.85
2018-11-11T22:08:50.535Z,9.90
2018-11-11T22:11:22.760Z,9.85
2018-11-11T22:13:53.621Z,9.85
2018-11-11T22:16:24.349Z,9.90
2018-11-11T22:18:55.154Z,9.82
2018-11-11T22:21:26.138Z,9.78
2018-11-11T22:23:57.831Z,9.77
2018-11-11T22:26:40.262Z,9.77
2018-11-11T22:29:12.224Z,9.69
2018-11-11T22:31:43.392Z,9.67
2018-11-11T22:37:07.791Z,9.76
2018-11-11T22:39:41.310Z,9.82
2018-11-11T22:42:13.321Z,9.94
2018-11-11T22:45:05.291Z,10.00
2018-11-11T22:47:36.512Z,10.11
2018-11-11T22:50:18.918Z,10.12
2018-11-11T22:52:56.489Z,10.10
2018-11-11T22:55:27.985Z,10.16
2018-11-11T23:00:54.170Z,10.20
2018-11-11T23:03:26.079Z,10.19
2018-11-11T23:05:57.009Z,10.23
2018-11-11T23:08:28.760Z,10.23
2018-11-11T23:11:26.124Z,10.23
2018-11-11T23:13:57.268Z,10.09
2018-11-11T23:19:42.217Z,9.88
2018-11-11T23:22:13.750Z,9.90
2018-11-11T23:24:44.988Z,9.81
2018-11-11T23:27:15.749Z,9.87
2018-11-11T23:29:46.850Z,9.81
2018-11-11T23:32:19.688Z,9.90
2018-11-11T23:34:52.096Z,9.82
2018-11-11T23:37:22.927Z,9.69
2018-11-11T23:39:54.506Z,9.60
2018-11-11T23:42:26.826Z,9.57
2018-11-11T23:44:57.759Z,9.59
2018-11-11T23:47:28.930Z,9.54
2018-11-11T23:49:59.777Z,9.60
2018-11-11T23:52:30.694Z,9.58
2018-11-11T23:57:38.406Z,9.71
